Guilin, China

6:25 AM CST on January 20, 2017 (GMT +0800)
Liangjiang | | Change Station

Elev 545 ft 25.33 °N, 110.30 °E | Updated 25 minutes ago

Overcast
Overcast
45 °F
Feels Like 41 °F
N
7
Wind Variable Wind from ENE

Today
High -- | Low -- °F
--% Chance of Precip.
Yesterday
High -- | Low -- °F
Precip. -- in
Pressure 30.36 in
Visibility 3.7 miles
Clouds Mostly Cloudy 4000 ft
Overcast 6600 ft
Windchill 41 °F
Dew Point 36 °F
Humidity 71%
Rainfall 0.00 in
Snow Depth Not available.
7:25 AM 6:14 PM
Waning Gibbous, 50% visible
METAR ZGKL 192200Z 06003MPS 6000 BKN040 OVC066 07/02 Q1028 NOSIG
Pressure 30.36 in
Visibility 3.7 miles
Clouds Mostly Cloudy 4000 ft
Overcast 6600 ft
Windchill 41 °F
Dew Point 36 °F
Humidity 71%
Rainfall 0.00 in
Snow Depth Not available.
7:25 AM 6:14 PM
Waning Gibbous, 50% visible
METAR ZGKL 192200Z 06003MPS 6000 BKN040 OVC066 07/02 Q1028 NOSIG

Get Your Daily Forecast Email!

Thanks for signing up!

Be on the lookout for a verification email in your inbox.

You'll start receiving the daily forecast at 8 AM.

×

10-Day Weather Forecast

No radar image for this location.
×

Almanac

Astronomy

Jan. 20, 2017 Rise Set
Actual Time
Civil Twilight
Nautical Twilight
Astronomical Twilight
Moon
Length of Visible Light
Length of Day
Tomorrow will be .
, % of the Moon is Illuminated

Today's Extremes

Country Highs Country Lows

Community

WunderPhotos

Upload Photos

1,962,540 photos uploaded!

WunderBlog® & News

Nearby

Air Quality

  Air Quality AQ Index Pollutant
Not available.

Snow Depth

Station Depth Elevation

Earthquake Activity

City Distance Mag. Time & Date
Minimum magnitude displayed is 2.5.

Coastal Water Temperatures

Place Temperature

Stations

Nearby Weather Stations

Station Location Temp. Windchill Dew Point Humidity Wind Precip. Elev Updated Type